sensor_id;sensor_type;location;lat;lon;timestamp;pressure;altitude;pressure_sealevel;temperature;humidity
65534;BME280;53640;55.838;37.184;2023-04-29T00:02:03;98972.19;;;4.51;59.44
65534;BME280;53640;55.838;37.184;2023-04-29T00:04:30;98890.69;;;3.94;59.40
65534;BME280;53640;55.838;37.184;2023-04-29T00:06:57;98922.53;;;4.18;59.28
65534;BME280;53640;55.838;37.184;2023-04-29T00:09:23;98964.69;;;4.46;59.35
65534;BME280;53640;55.838;37.184;2023-04-29T00:11:49;98941.81;;;4.29;59.33
65534;BME280;53640;55.838;37.184;2023-04-29T00:14:16;98938.13;;;4.30;59.37
65534;BME280;53640;55.838;37.184;2023-04-29T00:16:43;98930.38;;;4.20;59.39
65534;BME280;53640;55.838;37.184;2023-04-29T00:19:09;98990.44;;;4.62;59.61
65534;BME280;53640;55.838;37.184;2023-04-29T00:21:36;98907.88;;;4.14;59.61
65534;BME280;53640;55.838;37.184;2023-04-29T00:24:02;98953.97;;;4.46;59.73
65534;BME280;53640;55.838;37.184;2023-04-29T00:26:29;98958.06;;;4.42;59.48
65534;BME280;53640;55.838;37.184;2023-04-29T00:28:55;98980.75;;;4.61;59.58
65534;BME280;53640;55.838;37.184;2023-04-29T00:31:22;98974.75;;;4.59;59.87
65534;BME280;53640;55.838;37.184;2023-04-29T00:33:51;98977.25;;;4.60;59.49
65534;BME280;53640;55.838;37.184;2023-04-29T00:36:18;98972.34;;;4.64;59.55
65534;BME280;53640;55.838;37.184;2023-04-29T00:38:44;98840.97;;;3.70;59.39
65534;BME280;53640;55.838;37.184;2023-04-29T00:41:11;98945.69;;;4.41;59.39
65534;BME280;53640;55.838;37.184;2023-04-29T00:43:37;98948.63;;;4.46;59.63
65534;BME280;53640;55.838;37.184;2023-04-29T00:46:04;98952.97;;;4.47;59.82
65534;BME280;53640;55.838;37.184;2023-04-29T00:48:30;98921.03;;;4.31;60.02
65534;BME280;53640;55.838;37.184;2023-04-29T00:50:58;98945.50;;;4.42;60.01
65534;BME280;53640;55.838;37.184;2023-04-29T00:53:25;98935.34;;;4.38;60.00
65534;BME280;53640;55.838;37.184;2023-04-29T00:55:51;98948.63;;;4.46;60.02
65534;BME280;53640;55.838;37.184;2023-04-29T00:58:18;98942.81;;;4.42;60.19
65534;BME280;53640;55.838;37.184;2023-04-29T01:00:45;98913.75;;;4.24;59.79
65534;BME280;53640;55.838;37.184;2023-04-29T01:03:13;98918.63;;;4.21;59.59
65534;BME280;53640;55.838;37.184;2023-04-29T01:05:40;98934.25;;;4.17;59.16
65534;BME280;53640;55.838;37.184;2023-04-29T01:08:37;98958.88;;;4.42;59.57
65534;BME280;53640;55.838;37.184;2023-04-29T01:11:07;98967.66;;;4.36;59.15
65534;BME280;53640;55.838;37.184;2023-04-29T01:13:54;98964.28;;;4.28;59.26
65534;BME280;53640;55.838;37.184;2023-04-29T01:16:33;98907.13;;;3.91;59.73
65534;BME280;53640;55.838;37.184;2023-04-29T01:21:59;98971.94;;;4.31;59.96
65534;BME280;53640;55.838;37.184;2023-04-29T01:24:25;98866.47;;;3.66;59.84
65534;BME280;53640;55.838;37.184;2023-04-29T01:26:57;98955.31;;;4.20;59.44
65534;BME280;53640;55.838;37.184;2023-04-29T01:29:55;98921.53;;;4.05;59.65
65534;BME280;53640;55.838;37.184;2023-04-29T01:32:50;98962.88;;;4.32;59.78
65534;BME280;53640;55.838;37.184;2023-04-29T01:44:12;98916.84;;;4.07;59.95
65534;BME280;53640;55.838;37.184;2023-04-29T01:46:40;98939.44;;;4.19;60.04
65534;BME280;53640;55.838;37.184;2023-04-29T01:49:08;98943.50;;;4.30;59.88
65534;BME280;53640;55.838;37.184;2023-04-29T01:51:35;98922.09;;;4.15;59.96
65534;BME280;53640;55.838;37.184;2023-04-29T01:54:02;98932.31;;;4.26;59.91
65534;BME280;53640;55.838;37.184;2023-04-29T01:56:30;98832.59;;;3.58;59.56
65534;BME280;53640;55.838;37.184;2023-04-29T01:59:20;98884.06;;;3.90;60.16
65534;BME280;53640;55.838;37.184;2023-04-29T02:02:06;98880.28;;;3.84;60.49
65534;BME280;53640;55.838;37.184;2023-04-29T02:04:35;98925.59;;;4.15;60.54
65534;BME280;53640;55.838;37.184;2023-04-29T02:07:02;98868.72;;;3.84;60.06
65534;BME280;53640;55.838;37.184;2023-04-29T02:09:30;98901.69;;;3.99;59.90
65534;BME280;53640;55.838;37.184;2023-04-29T02:12:05;98914.91;;;4.00;59.59
65534;BME280;53640;55.838;37.184;2023-04-29T02:14:32;98863.59;;;3.67;59.93
65534;BME280;53640;55.838;37.184;2023-04-29T02:17:00;98946.19;;;4.15;59.98
65534;BME280;53640;55.838;37.184;2023-04-29T02:19:27;98968.91;;;4.19;59.64
65534;BME280;53640;55.838;37.184;2023-04-29T02:21:56;98906.97;;;3.78;59.62
65534;BME280;53640;55.838;37.184;2023-04-29T02:24:25;98950.91;;;3.98;59.36
65534;BME280;53640;55.838;37.184;2023-04-29T02:26:52;98977.22;;;4.09;59.51
65534;BME280;53640;55.838;37.184;2023-04-29T02:29:18;98923.75;;;3.71;59.56
65534;BME280;53640;55.838;37.184;2023-04-29T02:31:45;98918.22;;;3.58;59.50
65534;BME280;53640;55.838;37.184;2023-04-29T02:34:11;98983.78;;;3.92;59.54
65534;BME280;53640;55.838;37.184;2023-04-29T02:36:37;98977.22;;;3.94;59.55
65534;BME280;53640;55.838;37.184;2023-04-29T02:39:04;98974.38;;;3.96;59.76
65534;BME280;53640;55.838;37.184;2023-04-29T02:41:31;98982.88;;;3.99;59.48
65534;BME280;53640;55.838;37.184;2023-04-29T02:43:57;98948.31;;;3.75;59.51
65534;BME280;53640;55.838;37.184;2023-04-29T02:46:23;98952.47;;;3.78;59.88
65534;BME280;53640;55.838;37.184;2023-04-29T02:48:50;98892.00;;;3.39;59.80
65534;BME280;53640;55.838;37.184;2023-04-29T02:51:17;98956.81;;;3.79;60.09
65534;BME280;53640;55.838;37.184;2023-04-29T02:53:43;98986.38;;;4.00;59.80
65534;BME280;53640;55.838;37.184;2023-04-29T02:56:10;99006.69;;;4.09;59.96
65534;BME280;53640;55.838;37.184;2023-04-29T02:58:36;98984.06;;;3.97;59.66
65534;BME280;53640;55.838;37.184;2023-04-29T03:01:03;99004.00;;;4.09;60.03
65534;BME280;53640;55.838;37.184;2023-04-29T03:03:30;98963.28;;;3.84;59.81
65534;BME280;53640;55.838;37.184;2023-04-29T03:05:57;98958.84;;;3.77;59.90
65534;BME280;53640;55.838;37.184;2023-04-29T03:08:23;99016.47;;;4.02;59.83
65534;BME280;53640;55.838;37.184;2023-04-29T03:10:51;98998.56;;;3.88;59.58
65534;BME280;53640;55.838;37.184;2023-04-29T03:13:19;99012.56;;;3.90;59.80
65534;BME280;53640;55.838;37.184;2023-04-29T03:15:46;99038.28;;;3.99;60.37
65534;BME280;53640;55.838;37.184;2023-04-29T03:18:13;99047.78;;;4.02;60.23
65534;BME280;53640;55.838;37.184;2023-04-29T03:20:39;99002.31;;;3.79;60.21
65534;BME280;53640;55.838;37.184;2023-04-29T03:23:06;99048.78;;;4.00;60.42
65534;BME280;53640;55.838;37.184;2023-04-29T03:25:33;99008.78;;;3.69;60.65
65534;BME280;53640;55.838;37.184;2023-04-29T03:28:00;99050.44;;;4.02;60.96
65534;BME280;53640;55.838;37.184;2023-04-29T03:30:27;99022.47;;;3.89;61.31
65534;BME280;53640;55.838;37.184;2023-04-29T03:32:56;98949.34;;;3.36;60.72
65534;BME280;53640;55.838;37.184;2023-04-29T03:35:23;99041.88;;;3.91;60.97
65534;BME280;53640;55.838;37.184;2023-04-29T03:38:13;99049.63;;;4.01;60.73
65534;BME280;53640;55.838;37.184;2023-04-29T03:40:39;99087.16;;;4.31;60.17
65534;BME280;53640;55.838;37.184;2023-04-29T03:43:06;99080.75;;;4.32;60.28
65534;BME280;53640;55.838;37.184;2023-04-29T03:45:34;99099.44;;;4.40;60.12
65534;BME280;53640;55.838;37.184;2023-04-29T03:48:04;99094.16;;;4.46;60.15
65534;BME280;53640;55.838;37.184;2023-04-29T03:50:31;99074.31;;;4.41;59.90
65534;BME280;53640;55.838;37.184;2023-04-29T03:52:58;99072.00;;;4.38;59.31
65534;BME280;53640;55.838;37.184;2023-04-29T03:55:24;99092.22;;;4.55;59.67
65534;BME280;53640;55.838;37.184;2023-04-29T03:57:51;99078.09;;;4.32;59.03
65534;BME280;53640;55.838;37.184;2023-04-29T04:00:21;99087.31;;;4.44;58.51
65534;BME280;53640;55.838;37.184;2023-04-29T04:02:53;99084.94;;;4.34;58.56
65534;BME280;53640;55.838;37.184;2023-04-29T04:05:21;99102.41;;;4.45;58.98
65534;BME280;53640;55.838;37.184;2023-04-29T04:07:54;99087.63;;;4.34;59.06
65534;BME280;53640;55.838;37.184;2023-04-29T04:10:49;99082.34;;;4.26;58.63
65534;BME280;53640;55.838;37.184;2023-04-29T04:13:27;99055.72;;;4.10;59.20
65534;BME280;53640;55.838;37.184;2023-04-29T04:15:55;99071.88;;;4.16;58.95
65534;BME280;53640;55.838;37.184;2023-04-29T04:18:21;99079.56;;;4.19;59.35
65534;BME280;53640;55.838;37.184;2023-04-29T04:20:51;99086.31;;;4.30;58.90
65534;BME280;53640;55.838;37.184;2023-04-29T04:23:38;99006.13;;;3.84;59.29
65534;BME280;53640;55.838;37.184;2023-04-29T04:26:10;98954.84;;;3.43;58.99
65534;BME280;53640;55.838;37.184;2023-04-29T04:29:03;99044.06;;;4.03;59.40
65534;BME280;53640;55.838;37.184;2023-04-29T04:31:57;99008.38;;;3.72;59.58
65534;BME280;53640;55.838;37.184;2023-04-29T04:34:33;99032.00;;;3.92;59.52
65534;BME280;53640;55.838;37.184;2023-04-29T04:37:06;99023.00;;;3.85;59.28
65534;BME280;53640;55.838;37.184;2023-04-29T04:39:39;98969.34;;;3.63;59.18
65534;BME280;53640;55.838;37.184;2023-04-29T04:42:23;99068.03;;;4.19;59.24
65534;BME280;53640;55.838;37.184;2023-04-29T04:44:58;99027.09;;;3.95;58.97
65534;BME280;53640;55.838;37.184;2023-04-29T04:47:44;99007.69;;;3.93;59.03
65534;BME280;53640;55.838;37.184;2023-04-29T04:50:28;99034.28;;;4.10;58.71
65534;BME280;53640;55.838;37.184;2023-04-29T04:53:01;98960.28;;;3.64;58.61
65534;BME280;53640;55.838;37.184;2023-04-29T04:55:48;99073.56;;;4.32;58.74
65534;BME280;53640;55.838;37.184;2023-04-29T04:58:15;99016.09;;;4.05;59.39
65534;BME280;53640;55.838;37.184;2023-04-29T05:00:45;99043.63;;;4.29;59.42
65534;BME280;53640;55.838;37.184;2023-04-29T05:03:12;99094.84;;;4.63;59.62
65534;BME280;53640;55.838;37.184;2023-04-29T05:05:38;99078.34;;;4.66;59.39
65534;BME280;53640;55.838;37.184;2023-04-29T05:08:05;99042.63;;;4.44;58.69
65534;BME280;53640;55.838;37.184;2023-04-29T05:10:38;99101.63;;;4.81;59.14
65534;BME280;53640;55.838;37.184;2023-04-29T05:13:05;99104.16;;;4.82;58.24
65534;BME280;53640;55.838;37.184;2023-04-29T05:15:34;99083.81;;;4.73;57.71
65534;BME280;53640;55.838;37.184;2023-04-29T05:18:05;99051.75;;;4.50;57.46
65534;BME280;53640;55.838;37.184;2023-04-29T05:20:32;99104.41;;;4.87;57.46
65534;BME280;53640;55.838;37.184;2023-04-29T05:23:01;99080.66;;;4.69;57.33
65534;BME280;53640;55.838;37.184;2023-04-29T05:25:31;99064.50;;;4.63;57.51
65534;BME280;53640;55.838;37.184;2023-04-29T05:27:59;99104.03;;;4.90;57.37
65534;BME280;53640;55.838;37.184;2023-04-29T05:30:43;99053.50;;;4.58;57.48
65534;BME280;53640;55.838;37.184;2023-04-29T05:33:10;99057.09;;;4.65;57.13
65534;BME280;53640;55.838;37.184;2023-04-29T05:35:39;99018.97;;;4.48;57.04
65534;BME280;53640;55.838;37.184;2023-04-29T05:38:05;99037.13;;;4.67;56.92
65534;BME280;53640;55.838;37.184;2023-04-29T05:40:37;99073.06;;;4.88;57.32
65534;BME280;53640;55.838;37.184;2023-04-29T05:44:04;99091.81;;;5.03;57.43
65534;BME280;53640;55.838;37.184;2023-04-29T05:46:31;99048.66;;;4.83;57.38
65534;BME280;53640;55.838;37.184;2023-04-29T05:49:06;98995.31;;;4.52;57.17
65534;BME280;53640;55.838;37.184;2023-04-29T05:51:33;99109.34;;;5.35;57.60
65534;BME280;53640;55.838;37.184;2023-04-29T05:54:00;99011.75;;;4.85;57.38
65534;BME280;53640;55.838;37.184;2023-04-29T05:56:28;99038.81;;;5.05;57.10
65534;BME280;53640;55.838;37.184;2023-04-29T06:30:08;99021.88;;;5.04;54.73
65534;BME280;53640;55.838;37.184;2023-04-29T06:32:38;99078.41;;;5.39;54.87
65534;BME280;53640;55.838;37.184;2023-04-29T06:35:11;99031.00;;;5.10;55.37
65534;BME280;53640;55.838;37.184;2023-04-29T06:37:59;99109.97;;;5.58;55.28
65534;BME280;53640;55.838;37.184;2023-04-29T06:40:35;99127.75;;;5.81;55.40
65534;BME280;53640;55.838;37.184;2023-04-29T06:43:07;99048.81;;;5.32;55.03
65534;BME280;53640;55.838;37.184;2023-04-29T06:45:55;99115.75;;;5.77;54.52
65534;BME280;53640;55.838;37.184;2023-04-29T06:48:29;99077.38;;;5.61;53.97
65534;BME280;53640;55.838;37.184;2023-04-29T06:50:57;99045.75;;;5.35;54.61
65534;BME280;53640;55.838;37.184;2023-04-29T06:53:26;99171.72;;;6.23;54.59
65534;BME280;53640;55.838;37.184;2023-04-29T06:55:54;99124.16;;;5.95;53.78
65534;BME280;53640;55.838;37.184;2023-04-29T06:58:21;99099.25;;;5.80;54.07
65534;BME280;53640;55.838;37.184;2023-04-29T07:01:01;99116.09;;;5.95;54.24
65534;BME280;53640;55.838;37.184;2023-04-29T07:03:34;99120.25;;;5.98;54.23
65534;BME280;53640;55.838;37.184;2023-04-29T07:06:01;99151.44;;;6.20;53.85
65534;BME280;53640;55.838;37.184;2023-04-29T07:08:27;99080.63;;;5.78;54.09
65534;BME280;53640;55.838;37.184;2023-04-29T07:10:55;99192.66;;;6.55;54.21
65534;BME280;53640;55.838;37.184;2023-04-29T07:13:24;99142.22;;;6.29;54.40
65534;BME280;53640;55.838;37.184;2023-04-29T07:15:51;99048.69;;;5.90;55.26
65534;BME280;53640;55.838;37.184;2023-04-29T07:18:17;99089.91;;;6.32;53.64
65534;BME280;53640;55.838;37.184;2023-04-29T07:20:44;99095.16;;;6.47;51.96
65534;BME280;53640;55.838;37.184;2023-04-29T07:23:13;99090.09;;;6.65;53.13
65534;BME280;53640;55.838;37.184;2023-04-29T07:25:41;99141.94;;;7.22;52.04
65534;BME280;53640;55.838;37.184;2023-04-29T07:28:08;99126.00;;;7.27;51.61
65534;BME280;53640;55.838;37.184;2023-04-29T07:30:34;99066.31;;;7.10;51.25
65534;BME280;53640;55.838;37.184;2023-04-29T07:33:03;99126.50;;;7.63;49.63
65534;BME280;53640;55.838;37.184;2023-04-29T07:35:30;99152.50;;;7.98;49.86
65534;BME280;53640;55.838;37.184;2023-04-29T07:37:57;99164.31;;;8.17;50.02
65534;BME280;53640;55.838;37.184;2023-04-29T07:40:24;99148.31;;;8.08;49.23
65534;BME280;53640;55.838;37.184;2023-04-29T07:42:56;99165.38;;;8.29;47.97
65534;BME280;53640;55.838;37.184;2023-04-29T07:45:23;99168.69;;;8.24;48.13
65534;BME280;53640;55.838;37.184;2023-04-29T07:47:49;99173.25;;;8.24;48.08
65534;BME280;53640;55.838;37.184;2023-04-29T07:53:35;99219.13;;;8.50;47.85
65534;BME280;53640;55.838;37.184;2023-04-29T07:56:06;99205.81;;;8.42;47.79
65534;BME280;53640;55.838;37.184;2023-04-29T07:58:34;99185.06;;;8.49;48.89
65534;BME280;53640;55.838;37.184;2023-04-29T08:01:07;99188.78;;;8.68;47.09
65534;BME280;53640;55.838;37.184;2023-04-29T08:03:35;99208.06;;;8.85;46.89
65534;BME280;53640;55.838;37.184;2023-04-29T08:06:03;99242.06;;;9.13;46.53
65534;BME280;53640;55.838;37.184;2023-04-29T08:08:30;99178.63;;;8.70;46.64
65534;BME280;53640;55.838;37.184;2023-04-29T08:10:57;99209.13;;;8.77;45.60
65534;BME280;53640;55.838;37.184;2023-04-29T08:13:24;99208.72;;;8.80;46.78
65534;BME280;53640;55.838;37.184;2023-04-29T08:15:50;99248.94;;;9.08;45.47
65534;BME280;53640;55.838;37.184;2023-04-29T08:18:19;99230.84;;;9.22;46.29
65534;BME280;53640;55.838;37.184;2023-04-29T08:20:47;99254.22;;;9.62;44.22
65534;BME280;53640;55.838;37.184;2023-04-29T08:23:15;99228.78;;;9.76;46.07
65534;BME280;53640;55.838;37.184;2023-04-29T08:25:42;99190.69;;;9.84;42.99
65534;BME280;53640;55.838;37.184;2023-04-29T08:28:10;99251.63;;;10.50;42.32
65534;BME280;53640;55.838;37.184;2023-04-29T08:30:38;99208.00;;;10.65;42.56
65534;BME280;53640;55.838;37.184;2023-04-29T08:33:05;99257.59;;;11.27;42.47
65534;BME280;53640;55.838;37.184;2023-04-29T08:35:32;99245.09;;;11.63;41.23
65534;BME280;53640;55.838;37.184;2023-04-29T08:37:58;99224.31;;;11.75;39.44
65534;BME280;53640;55.838;37.184;2023-04-29T08:40:25;99218.84;;;11.93;37.83
65534;BME280;53640;55.838;37.184;2023-04-29T08:42:53;99224.84;;;12.26;38.41
65534;BME280;53640;55.838;37.184;2023-04-29T08:45:23;99214.78;;;12.14;37.66
65534;BME280;53640;55.838;37.184;2023-04-29T08:47:50;99197.97;;;11.94;36.96
65534;BME280;53640;55.838;37.184;2023-04-29T08:50:18;99225.03;;;12.01;37.30
65534;BME280;53640;55.838;37.184;2023-04-29T08:52:45;99175.97;;;11.54;36.55
65534;BME280;53640;55.838;37.184;2023-04-29T08:55:46;99214.22;;;11.64;36.72
65534;BME280;53640;55.838;37.184;2023-04-29T08:58:28;99211.53;;;11.27;35.46
65534;BME280;53640;55.838;37.184;2023-04-29T09:00:55;99192.41;;;11.03;35.93
65534;BME280;53640;55.838;37.184;2023-04-29T09:03:43;99171.50;;;11.11;36.08
65534;BME280;53640;55.838;37.184;2023-04-29T09:06:13;99194.03;;;11.60;34.07
65534;BME280;53640;55.838;37.184;2023-04-29T09:08:40;99228.09;;;11.74;35.58
65534;BME280;53640;55.838;37.184;2023-04-29T09:11:08;99253.72;;;12.08;34.03
65534;BME280;53640;55.838;37.184;2023-04-29T09:13:38;99232.34;;;12.42;34.29
65534;BME280;53640;55.838;37.184;2023-04-29T09:16:12;99205.47;;;12.87;34.43
65534;BME280;53640;55.838;37.184;2023-04-29T09:18:46;99243.59;;;13.39;32.16
65534;BME280;53640;55.838;37.184;2023-04-29T09:21:22;99257.75;;;13.41;31.38
65534;BME280;53640;55.838;37.184;2023-04-29T09:23:51;99250.72;;;13.17;31.42
65534;BME280;53640;55.838;37.184;2023-04-29T09:26:25;99241.88;;;12.98;31.42
65534;BME280;53640;55.838;37.184;2023-04-29T09:29:11;99274.47;;;12.98;32.35
65534;BME280;53640;55.838;37.184;2023-04-29T09:31:44;99268.91;;;12.81;32.24
65534;BME280;53640;55.838;37.184;2023-04-29T09:34:11;99264.34;;;12.63;32.63
65534;BME280;53640;55.838;37.184;2023-04-29T09:36:50;99247.47;;;12.50;33.19
65534;BME280;53640;55.838;37.184;2023-04-29T09:39:22;99283.91;;;12.95;34.05
65534;BME280;53640;55.838;37.184;2023-04-29T09:44:40;99210.91;;;13.91;31.30
65534;BME280;53640;55.838;37.184;2023-04-29T09:47:08;99241.84;;;14.76;31.76
65534;BME280;53640;55.838;37.184;2023-04-29T09:49:41;99229.50;;;15.07;30.32
65534;BME280;53640;55.838;37.184;2023-04-29T09:52:13;99293.84;;;15.25;29.72
65534;BME280;53640;55.838;37.184;2023-04-29T09:54:41;99265.94;;;14.84;29.88
65534;BME280;53640;55.838;37.184;2023-04-29T09:57:12;99169.25;;;14.70;29.47
65534;BME280;53640;55.838;37.184;2023-04-29T09:59:41;99209.31;;;15.47;28.33
65534;BME280;53640;55.838;37.184;2023-04-29T10:02:16;99256.06;;;16.49;27.20
65534;BME280;53640;55.838;37.184;2023-04-29T10:04:44;99191.50;;;16.75;26.24
65534;BME280;53640;55.838;37.184;2023-04-29T10:07:21;99278.25;;;17.69;22.31
65534;BME280;53640;55.838;37.184;2023-04-29T10:09:52;99271.81;;;18.01;22.13
65534;BME280;53640;55.838;37.184;2023-04-29T10:12:20;99274.31;;;18.13;21.03
65534;BME280;53640;55.838;37.184;2023-04-29T10:15:16;99287.84;;;18.55;19.88
65534;BME280;53640;55.838;37.184;2023-04-29T10:17:51;99210.78;;;18.36;19.95
65534;BME280;53640;55.838;37.184;2023-04-29T10:20:24;99240.94;;;18.46;19.17
65534;BME280;53640;55.838;37.184;2023-04-29T10:22:52;99260.09;;;18.21;19.63
65534;BME280;53640;55.838;37.184;2023-04-29T10:25:25;99277.09;;;18.33;19.94
65534;BME280;53640;55.838;37.184;2023-04-29T10:27:54;99256.50;;;17.47;20.80
65534;BME280;53640;55.838;37.184;2023-04-29T10:30:21;99291.03;;;17.53;20.95
65534;BME280;53640;55.838;37.184;2023-04-29T10:32:50;99299.38;;;17.32;21.92
65534;BME280;53640;55.838;37.184;2023-04-29T10:35:18;99313.00;;;17.69;21.42
65534;BME280;53640;55.838;37.184;2023-04-29T10:37:46;99272.25;;;17.72;20.95
65534;BME280;53640;55.838;37.184;2023-04-29T10:40:18;99313.31;;;17.72;21.04
65534;BME280;53640;55.838;37.184;2023-04-29T10:42:49;99281.47;;;17.14;21.74
65534;BME280;53640;55.838;37.184;2023-04-29T10:45:27;99314.44;;;16.97;22.31
65534;BME280;53640;55.838;37.184;2023-04-29T10:53:14;99321.50;;;16.66;21.77
65534;BME280;53640;55.838;37.184;2023-04-29T10:55:41;99248.84;;;15.89;21.74
65534;BME280;53640;55.838;37.184;2023-04-29T10:58:35;99327.63;;;16.02;22.02
65534;BME280;53640;55.838;37.184;2023-04-29T11:01:02;99324.28;;;15.73;22.74
65534;BME280;53640;55.838;37.184;2023-04-29T11:03:52;99324.06;;;15.57;22.66
65534;BME280;53640;55.838;37.184;2023-04-29T11:06:38;99327.72;;;15.29;22.69
65534;BME280;53640;55.838;37.184;2023-04-29T11:09:14;99291.38;;;14.73;23.68
65534;BME280;53640;55.838;37.184;2023-04-29T11:11:52;99341.25;;;14.74;24.25
65534;BME280;53640;55.838;37.184;2023-04-29T11:14:41;99248.38;;;13.84;24.31
65534;BME280;53640;55.838;37.184;2023-04-29T11:17:13;99335.66;;;14.23;24.75
65534;BME280;53640;55.838;37.184;2023-04-29T11:19:48;99346.34;;;14.13;24.78
65534;BME280;53640;55.838;37.184;2023-04-29T11:27:19;99307.56;;;15.13;23.81
65534;BME280;53640;55.838;37.184;2023-04-29T11:29:49;99315.94;;;15.63;23.51
65534;BME280;53640;55.838;37.184;2023-04-29T11:32:19;99240.53;;;16.00;22.38
65534;BME280;53640;55.838;37.184;2023-04-29T11:34:46;99345.19;;;17.51;21.30
65534;BME280;53640;55.838;37.184;2023-04-29T11:37:19;99338.41;;;18.12;20.34
65534;BME280;53640;55.838;37.184;2023-04-29T11:39:47;99315.78;;;18.57;19.34
65534;BME280;53640;55.838;37.184;2023-04-29T11:42:18;99304.34;;;19.01;19.42
65534;BME280;53640;55.838;37.184;2023-04-29T11:44:46;99335.84;;;19.55;18.31
65534;BME280;53640;55.838;37.184;2023-04-29T11:47:15;99311.72;;;19.11;18.17
65534;BME280;53640;55.838;37.184;2023-04-29T11:49:41;99344.38;;;18.82;18.45
65534;BME280;53640;55.838;37.184;2023-04-29T11:52:08;99297.56;;;17.95;18.78
65534;BME280;53640;55.838;37.184;2023-04-29T11:54:40;99301.94;;;17.48;19.26
65534;BME280;53640;55.838;37.184;2023-04-29T11:57:09;99341.69;;;17.19;19.94
65534;BME280;53640;55.838;37.184;2023-04-29T11:59:36;99226.56;;;15.97;20.23
65534;BME280;53640;55.838;37.184;2023-04-29T12:02:03;99258.00;;;15.77;20.59
65534;BME280;53640;55.838;37.184;2023-04-29T12:04:32;99342.53;;;15.94;21.13
65534;BME280;53640;55.838;37.184;2023-04-29T12:07:04;99319.13;;;15.54;21.92
65534;BME280;53640;55.838;37.184;2023-04-29T12:09:42;99317.88;;;15.28;21.99
65534;BME280;53640;55.838;37.184;2023-04-29T12:12:13;99268.28;;;14.76;22.16
65534;BME280;53640;55.838;37.184;2023-04-29T12:14:43;99206.13;;;14.27;22.38
65534;BME280;53640;55.838;37.184;2023-04-29T12:17:13;99341.63;;;14.94;22.12
65534;BME280;53640;55.838;37.184;2023-04-29T12:19:40;99231.34;;;14.06;22.39
65534;BME280;53640;55.838;37.184;2023-04-29T12:22:33;99337.41;;;14.58;22.38
65534;BME280;53640;55.838;37.184;2023-04-29T12:25:11;99293.25;;;13.99;22.64
65534;BME280;53640;55.838;37.184;2023-04-29T12:27:41;99257.38;;;13.73;22.76
65534;BME280;53640;55.838;37.184;2023-04-29T12:30:12;99204.22;;;13.42;23.08
65534;BME280;53640;55.838;37.184;2023-04-29T12:32:45;99197.72;;;13.43;22.29
65534;BME280;53640;55.838;37.184;2023-04-29T12:35:14;99255.81;;;14.34;22.79
65534;BME280;53640;55.838;37.184;2023-04-29T12:37:48;99284.47;;;15.77;21.86
65534;BME280;53640;55.838;37.184;2023-04-29T12:40:16;99242.84;;;16.68;21.54
65534;BME280;53640;55.838;37.184;2023-04-29T12:42:45;99199.22;;;17.25;19.53
65534;BME280;53640;55.838;37.184;2023-04-29T12:45:33;99254.38;;;18.63;18.68
65534;BME280;53640;55.838;37.184;2023-04-29T12:48:05;99259.28;;;19.28;18.28
65534;BME280;53640;55.838;37.184;2023-04-29T12:50:35;99327.38;;;20.31;17.79
65534;BME280;53640;55.838;37.184;2023-04-29T12:53:04;99310.13;;;20.99;17.21
65534;BME280;53640;55.838;37.184;2023-04-29T12:55:35;99247.53;;;21.10;17.18
65534;BME280;53640;55.838;37.184;2023-04-29T12:58:03;99317.53;;;21.86;16.21
65534;BME280;53640;55.838;37.184;2023-04-29T13:00:33;99330.66;;;22.18;15.72
65534;BME280;53640;55.838;37.184;2023-04-29T13:03:00;99330.69;;;22.56;15.39
65534;BME280;53640;55.838;37.184;2023-04-29T13:05:26;99273.22;;;22.44;15.36
65534;BME280;53640;55.838;37.184;2023-04-29T13:07:53;99317.66;;;23.13;15.53
65534;BME280;53640;55.838;37.184;2023-04-29T13:10:19;99318.59;;;23.41;15.05
65534;BME280;53640;55.838;37.184;2023-04-29T13:12:46;99321.28;;;23.60;14.90
65534;BME280;53640;55.838;37.184;2023-04-29T13:15:13;99279.59;;;23.56;14.66
65534;BME280;53640;55.838;37.184;2023-04-29T13:17:42;99301.50;;;23.80;14.74
65534;BME280;53640;55.838;37.184;2023-04-29T13:20:08;99300.41;;;23.21;14.30
65534;BME280;53640;55.838;37.184;2023-04-29T13:22:36;99335.94;;;22.57;14.29
65534;BME280;53640;55.838;37.184;2023-04-29T13:25:03;99298.66;;;21.50;15.16
65534;BME280;53640;55.838;37.184;2023-04-29T13:27:30;99333.75;;;21.05;15.87
65534;BME280;53640;55.838;37.184;2023-04-29T13:29:57;99325.94;;;20.39;15.78
65534;BME280;53640;55.838;37.184;2023-04-29T13:32:23;99333.28;;;19.89;16.36
65534;BME280;53640;55.838;37.184;2023-04-29T13:34:50;99338.31;;;19.36;16.50
65534;BME280;53640;55.838;37.184;2023-04-29T13:37:17;99320.53;;;18.77;17.58
65534;BME280;53640;55.838;37.184;2023-04-29T13:39:44;99300.06;;;18.17;17.48
65534;BME280;53640;55.838;37.184;2023-04-29T13:42:11;99274.06;;;17.57;17.70
65534;BME280;53640;55.838;37.184;2023-04-29T13:44:37;99330.72;;;17.56;18.34
65534;BME280;53640;55.838;37.184;2023-04-29T13:47:10;99329.03;;;17.13;18.85
65534;BME280;53640;55.838;37.184;2023-04-29T13:49:41;99322.78;;;16.85;19.10
65534;BME280;53640;55.838;37.184;2023-04-29T13:52:10;99310.41;;;16.45;19.41
65534;BME280;53640;55.838;37.184;2023-04-29T13:54:37;99322.47;;;16.27;19.43
65534;BME280;53640;55.838;37.184;2023-04-29T13:57:03;99339.13;;;16.04;19.49
65534;BME280;53640;55.838;37.184;2023-04-29T13:59:31;99299.75;;;15.56;19.38
65534;BME280;53640;55.838;37.184;2023-04-29T14:01:58;99297.28;;;15.37;19.83
65534;BME280;53640;55.838;37.184;2023-04-29T14:04:27;99324.72;;;15.31;19.68
65534;BME280;53640;55.838;37.184;2023-04-29T14:06:54;99330.03;;;15.21;20.40
65534;BME280;53640;55.838;37.184;2023-04-29T14:09:21;99283.31;;;14.78;20.12
65534;BME280;53640;55.838;37.184;2023-04-29T14:11:49;99277.22;;;14.59;20.82
65534;BME280;53640;55.838;37.184;2023-04-29T14:14:16;99276.13;;;14.44;20.77